sensor_id;sensor_type;location;lat;lon;timestamp;pressure;altitude;pressure_sealevel;temperature;humidity
56825;BME280;42705;50.326;18.772;2022-09-25T00:04:08;98248.47;;;12.36;60.21
56825;BME280;42705;50.326;18.772;2022-09-25T00:09:29;98238.63;;;12.38;60.13
56825;BME280;42705;50.326;18.772;2022-09-25T00:14:50;98236.84;;;12.38;60.09
56825;BME280;42705;50.326;18.772;2022-09-25T00:20:12;98239.78;;;12.35;60.03
56825;BME280;42705;50.326;18.772;2022-09-25T00:25:35;98236.77;;;12.30;60.00
56825;BME280;42705;50.326;18.772;2022-09-25T00:30:57;98235.11;;;12.25;60.00
56825;BME280;42705;50.326;18.772;2022-09-25T00:36:18;98228.06;;;12.25;60.00
56825;BME280;42705;50.326;18.772;2022-09-25T00:41:40;98234.48;;;12.31;60.10
56825;BME280;42705;50.326;18.772;2022-09-25T00:47:01;98225.80;;;12.35;60.16
56825;BME280;42705;50.326;18.772;2022-09-25T00:52:24;98220.55;;;12.35;60.10
56825;BME280;42705;50.326;18.772;2022-09-25T00:57:49;98213.64;;;12.29;60.11
56825;BME280;42705;50.326;18.772;2022-09-25T01:03:13;98214.60;;;12.24;60.10
56825;BME280;42705;50.326;18.772;2022-09-25T01:08:35;98208.16;;;12.19;60.10
56825;BME280;42705;50.326;18.772;2022-09-25T01:13:59;98211.10;;;12.15;60.18
56825;BME280;42705;50.326;18.772;2022-09-25T01:25:14;98211.94;;;12.16;60.51
56825;BME280;42705;50.326;18.772;2022-09-25T01:30:54;98211.77;;;12.18;60.58
56825;BME280;42705;50.326;18.772;2022-09-25T01:36:25;98206.02;;;12.14;60.62
56825;BME280;42705;50.326;18.772;2022-09-25T01:41:58;98200.58;;;12.11;60.63
56825;BME280;42705;50.326;18.772;2022-09-25T01:47:29;98207.91;;;12.04;60.71
56825;BME280;42705;50.326;18.772;2022-09-25T01:52:56;98215.96;;;12.02;60.84
56825;BME280;42705;50.326;18.772;2022-09-25T02:03:57;98209.89;;;12.06;61.11
56825;BME280;42705;50.326;18.772;2022-09-25T02:15:01;98211.73;;;12.09;61.16
56825;BME280;42705;50.326;18.772;2022-09-25T02:20:29;98207.59;;;12.07;61.15
56825;BME280;42705;50.326;18.772;2022-09-25T02:26:04;98216.65;;;12.08;61.22
56825;BME280;42705;50.326;18.772;2022-09-25T02:31:29;98214.88;;;12.13;61.38
56825;BME280;42705;50.326;18.772;2022-09-25T02:37:02;98214.73;;;12.19;61.41
56825;BME280;42705;50.326;18.772;2022-09-25T02:42:55;98208.81;;;12.16;61.43
56825;BME280;42705;50.326;18.772;2022-09-25T02:54:14;98213.36;;;12.06;61.52
56825;BME280;42705;50.326;18.772;2022-09-25T02:59:49;98199.56;;;12.04;61.61
56825;BME280;42705;50.326;18.772;2022-09-25T03:05:15;98202.03;;;12.10;61.72
56825;BME280;42705;50.326;18.772;2022-09-25T03:10:36;98192.89;;;12.14;61.78
56825;BME280;42705;50.326;18.772;2022-09-25T03:16:01;98186.95;;;12.12;61.76
56825;BME280;42705;50.326;18.772;2022-09-25T03:21:30;98185.28;;;12.07;61.75
56825;BME280;42705;50.326;18.772;2022-09-25T03:26:52;98179.48;;;11.99;61.78
56825;BME280;42705;50.326;18.772;2022-09-25T03:32:14;98180.78;;;11.95;61.82
56825;BME280;42705;50.326;18.772;2022-09-25T03:37:35;98176.67;;;11.96;62.09
56825;BME280;42705;50.326;18.772;2022-09-25T03:42:56;98185.91;;;12.00;62.07
56825;BME280;42705;50.326;18.772;2022-09-25T03:48:17;98179.06;;;11.85;62.15
56825;BME280;42705;50.326;18.772;2022-09-25T03:53:39;98177.40;;;11.80;62.31
56825;BME280;42705;50.326;18.772;2022-09-25T03:59:01;98179.31;;;11.70;62.38
56825;BME280;42705;50.326;18.772;2022-09-25T04:04:22;98182.05;;;11.64;62.57
56825;BME280;42705;50.326;18.772;2022-09-25T04:09:43;98185.15;;;11.60;62.77
56825;BME280;42705;50.326;18.772;2022-09-25T04:15:05;98184.51;;;11.62;63.04
56825;BME280;42705;50.326;18.772;2022-09-25T04:20:28;98187.97;;;11.66;63.04
56825;BME280;42705;50.326;18.772;2022-09-25T04:25:49;98189.81;;;11.70;63.09
56825;BME280;42705;50.326;18.772;2022-09-25T04:31:11;98188.85;;;11.75;63.05
56825;BME280;42705;50.326;18.772;2022-09-25T04:36:32;98182.34;;;11.83;63.16
56825;BME280;42705;50.326;18.772;2022-09-25T04:41:53;98185.51;;;11.91;63.18
56825;BME280;42705;50.326;18.772;2022-09-25T04:47:15;98186.17;;;11.93;63.10
56825;BME280;42705;50.326;18.772;2022-09-25T04:52:36;98189.59;;;11.90;62.97
56825;BME280;42705;50.326;18.772;2022-09-25T04:57:59;98204.53;;;11.89;62.99
56825;BME280;42705;50.326;18.772;2022-09-25T05:03:21;98202.45;;;11.97;63.05
56825;BME280;42705;50.326;18.772;2022-09-25T05:08:42;98193.64;;;12.02;63.06
56825;BME280;42705;50.326;18.772;2022-09-25T05:14:03;98195.13;;;12.05;63.02
56825;BME280;42705;50.326;18.772;2022-09-25T05:19:24;98201.20;;;12.05;62.97
56825;BME280;42705;50.326;18.772;2022-09-25T05:24:45;98195.45;;;12.06;62.97
56825;BME280;42705;50.326;18.772;2022-09-25T05:30:07;98202.37;;;12.11;63.03
56825;BME280;42705;50.326;18.772;2022-09-25T05:35:31;98200.23;;;12.06;63.19
56825;BME280;42705;50.326;18.772;2022-09-25T05:40:53;98195.58;;;12.00;63.33
56825;BME280;42705;50.326;18.772;2022-09-25T05:46:16;98193.09;;;11.98;63.41
56825;BME280;42705;50.326;18.772;2022-09-25T05:51:37;98185.13;;;12.04;63.39
56825;BME280;42705;50.326;18.772;2022-09-25T05:56:58;98187.14;;;12.14;63.35
56825;BME280;42705;50.326;18.772;2022-09-25T06:02:19;98177.98;;;12.23;63.32
56825;BME280;42705;50.326;18.772;2022-09-25T06:07:40;98177.19;;;12.26;63.22
56825;BME280;42705;50.326;18.772;2022-09-25T06:13:02;98185.39;;;12.27;63.14
56825;BME280;42705;50.326;18.772;2022-09-25T06:18:28;98176.85;;;12.25;63.26
56825;BME280;42705;50.326;18.772;2022-09-25T06:23:49;98177.66;;;12.26;63.43
56825;BME280;42705;50.326;18.772;2022-09-25T06:29:10;98183.46;;;12.38;63.69
56825;BME280;42705;50.326;18.772;2022-09-25T06:34:31;98168.56;;;12.47;63.82
56825;BME280;42705;50.326;18.772;2022-09-25T06:39:52;98170.55;;;12.53;63.89
56825;BME280;42705;50.326;18.772;2022-09-25T06:45:13;98166.63;;;12.61;63.96
56825;BME280;42705;50.326;18.772;2022-09-25T06:50:43;98172.53;;;12.63;64.07
56825;BME280;42705;50.326;18.772;2022-09-25T06:56:06;98164.52;;;12.69;64.19
56825;BME280;42705;50.326;18.772;2022-09-25T07:01:27;98162.40;;;12.72;64.20
56825;BME280;42705;50.326;18.772;2022-09-25T07:06:48;98168.45;;;12.69;64.08
56825;BME280;42705;50.326;18.772;2022-09-25T07:12:10;98176.12;;;12.50;64.39
56825;BME280;42705;50.326;18.772;2022-09-25T07:17:31;98169.19;;;12.36;64.74
56825;BME280;42705;50.326;18.772;2022-09-25T07:22:57;98173.41;;;12.29;64.90
56825;BME280;42705;50.326;18.772;2022-09-25T07:28:21;98176.52;;;12.24;65.13
56825;BME280;42705;50.326;18.772;2022-09-25T07:33:42;98177.00;;;12.24;65.51
56825;BME280;42705;50.326;18.772;2022-09-25T07:39:04;98182.58;;;12.25;65.90
56825;BME280;42705;50.326;18.772;2022-09-25T07:44:26;98178.83;;;12.27;66.15
56825;BME280;42705;50.326;18.772;2022-09-25T07:49:47;98187.50;;;12.24;66.20
56825;BME280;42705;50.326;18.772;2022-09-25T07:55:08;98185.54;;;12.26;66.60
56825;BME280;42705;50.326;18.772;2022-09-25T08:00:29;98171.28;;;12.28;66.85
56825;BME280;42705;50.326;18.772;2022-09-25T08:05:59;98174.43;;;12.32;67.15
56825;BME280;42705;50.326;18.772;2022-09-25T08:11:21;98180.90;;;12.50;67.44
56825;BME280;42705;50.326;18.772;2022-09-25T08:16:43;98174.05;;;12.78;67.35
56825;BME280;42705;50.326;18.772;2022-09-25T08:22:04;98188.06;;;12.99;67.36
56825;BME280;42705;50.326;18.772;2022-09-25T08:27:25;98182.98;;;13.02;67.25
56825;BME280;42705;50.326;18.772;2022-09-25T08:32:46;98182.98;;;13.10;67.24
56825;BME280;42705;50.326;18.772;2022-09-25T08:38:09;98178.05;;;13.24;67.33
56825;BME280;42705;50.326;18.772;2022-09-25T08:43:35;98167.38;;;13.38;67.47
56825;BME280;42705;50.326;18.772;2022-09-25T08:48:59;98168.38;;;13.66;67.42
56825;BME280;42705;50.326;18.772;2022-09-25T08:54:28;98167.50;;;13.90;67.17
56825;BME280;42705;50.326;18.772;2022-09-25T08:59:53;98166.45;;;14.16;66.90
56825;BME280;42705;50.326;18.772;2022-09-25T09:10:56;98156.59;;;14.45;66.24
56825;BME280;42705;50.326;18.772;2022-09-25T09:22:10;98151.15;;;14.83;65.97
56825;BME280;42705;50.326;18.772;2022-09-25T09:27:58;98151.77;;;14.89;65.66
56825;BME280;42705;50.326;18.772;2022-09-25T09:33:48;98159.29;;;15.00;65.40
56825;BME280;42705;50.326;18.772;2022-09-25T09:39:42;98154.92;;;15.31;65.16
56825;BME280;42705;50.326;18.772;2022-09-25T09:45:13;98143.17;;;15.53;64.84
56825;BME280;42705;50.326;18.772;2022-09-25T09:50:58;98147.79;;;15.70;64.49
56825;BME280;42705;50.326;18.772;2022-09-25T09:56:31;98132.33;;;15.82;64.26
56825;BME280;42705;50.326;18.772;2022-09-25T10:02:10;98133.41;;;15.91;64.23
56825;BME280;42705;50.326;18.772;2022-09-25T10:07:41;98132.83;;;16.00;63.97
56825;BME280;42705;50.326;18.772;2022-09-25T10:24:58;98117.72;;;16.46;62.68
56825;BME280;42705;50.326;18.772;2022-09-25T10:30:25;98118.50;;;16.72;62.19
56825;BME280;42705;50.326;18.772;2022-09-25T10:35:46;98110.37;;;16.85;61.67
56825;BME280;42705;50.326;18.772;2022-09-25T10:41:16;98106.58;;;16.98;61.58
56825;BME280;42705;50.326;18.772;2022-09-25T10:46:38;98103.66;;;17.04;61.27
56825;BME280;42705;50.326;18.772;2022-09-25T10:52:18;98097.39;;;17.05;61.51
56825;BME280;42705;50.326;18.772;2022-09-25T10:57:39;98097.94;;;17.11;61.53
56825;BME280;42705;50.326;18.772;2022-09-25T11:03:03;98105.66;;;17.34;60.95
56825;BME280;42705;50.326;18.772;2022-09-25T11:08:28;98095.27;;;17.68;60.38
56825;BME280;42705;50.326;18.772;2022-09-25T11:13:56;98090.41;;;17.72;59.64
56825;BME280;42705;50.326;18.772;2022-09-25T11:25:21;98085.47;;;18.21;59.37
56825;BME280;42705;50.326;18.772;2022-09-25T11:30:47;98088.53;;;18.63;58.83
56825;BME280;42705;50.326;18.772;2022-09-25T11:36:31;98084.91;;;18.77;58.64
56825;BME280;42705;50.326;18.772;2022-09-25T11:42:39;98087.98;;;18.94;58.17
56825;BME280;42705;50.326;18.772;2022-09-25T12:17:00;98036.98;;;20.86;54.65
56825;BME280;42705;50.326;18.772;2022-09-25T12:22:46;98026.06;;;21.29;53.31
56825;BME280;42705;50.326;18.772;2022-09-25T12:39:36;98000.91;;;23.55;48.93
56825;BME280;42705;50.326;18.772;2022-09-25T12:45:04;97993.86;;;24.82;47.46
56825;BME280;42705;50.326;18.772;2022-09-25T12:50:38;97996.59;;;23.81;47.43
56825;BME280;42705;50.326;18.772;2022-09-25T12:56:10;97990.92;;;23.39;47.29
56825;BME280;42705;50.326;18.772;2022-09-25T13:01:46;97987.50;;;24.40;45.14
56825;BME280;42705;50.326;18.772;2022-09-25T13:07:19;97995.00;;;23.68;45.66
56825;BME280;42705;50.326;18.772;2022-09-25T13:13:00;97993.41;;;22.60;46.35
56825;BME280;42705;50.326;18.772;2022-09-25T13:18:25;97995.38;;;21.82;47.14
56825;BME280;42705;50.326;18.772;2022-09-25T13:23:49;97990.33;;;21.92;46.71
56825;BME280;42705;50.326;18.772;2022-09-25T13:29:34;97975.72;;;22.25;46.87
56825;BME280;42705;50.326;18.772;2022-09-25T13:35:04;97977.38;;;22.72;46.75
56825;BME280;42705;50.326;18.772;2022-09-25T13:40:36;97980.09;;;22.41;47.12
56825;BME280;42705;50.326;18.772;2022-09-25T13:51:44;97969.98;;;21.42;47.87
56825;BME280;42705;50.326;18.772;2022-09-25T13:57:05;97960.03;;;20.84;48.43
56825;BME280;42705;50.326;18.772;2022-09-25T14:02:43;97955.84;;;20.37;48.95
56825;BME280;42705;50.326;18.772;2022-09-25T14:08:08;97962.67;;;19.94;49.76
56825;BME280;42705;50.326;18.772;2022-09-25T14:13:32;97958.37;;;19.64;50.17
56825;BME280;42705;50.326;18.772;2022-09-25T14:18:55;97952.36;;;19.30;50.74
56825;BME280;42705;50.326;18.772;2022-09-25T14:24:27;97945.17;;;19.07;51.53
56825;BME280;42705;50.326;18.772;2022-09-25T14:29:49;97949.29;;;18.76;51.99
56825;BME280;42705;50.326;18.772;2022-09-25T14:35:45;97949.28;;;18.49;52.46
56825;BME280;42705;50.326;18.772;2022-09-25T14:46:28;97951.72;;;18.37;53.30
56825;BME280;42705;50.326;18.772;2022-09-25T14:52:01;97946.61;;;18.22;53.74
56825;BME280;42705;50.326;18.772;2022-09-25T14:57:31;97949.55;;;18.10;53.95
56825;BME280;42705;50.326;18.772;2022-09-25T15:02:55;97943.03;;;17.82;54.38
56825;BME280;42705;50.326;18.772;2022-09-25T15:14:14;97913.95;;;17.40;55.20
56825;BME280;42705;50.326;18.772;2022-09-25T15:19:36;97920.43;;;17.30;55.44
56825;BME280;42705;50.326;18.772;2022-09-25T15:25:05;97912.58;;;17.26;55.81
56825;BME280;42705;50.326;18.772;2022-09-25T15:30:28;97917.44;;;17.23;56.03
56825;BME280;42705;50.326;18.772;2022-09-25T15:35:57;97907.55;;;17.20;56.36
56825;BME280;42705;50.326;18.772;2022-09-25T15:41:20;97909.84;;;17.13;56.74
56825;BME280;42705;50.326;18.772;2022-09-25T15:46:50;97905.03;;;17.05;57.14
56825;BME280;42705;50.326;18.772;2022-09-25T15:52:25;97907.37;;;16.93;57.61
56825;BME280;42705;50.326;18.772;2022-09-25T15:57:51;97911.50;;;16.85;57.98
56825;BME280;42705;50.326;18.772;2022-09-25T16:03:18;97911.52;;;16.74;58.38
56825;BME280;42705;50.326;18.772;2022-09-25T16:09:19;97919.83;;;16.54;58.80
56825;BME280;42705;50.326;18.772;2022-09-25T16:14:42;97915.63;;;16.38;59.39
56825;BME280;42705;50.326;18.772;2022-09-25T16:20:27;97903.91;;;16.36;59.93
56825;BME280;42705;50.326;18.772;2022-09-25T16:25:43;97902.48;;;16.33;60.39
56825;BME280;42705;50.326;18.772;2022-09-25T16:31:08;97905.45;;;16.24;60.67
56825;BME280;42705;50.326;18.772;2022-09-25T16:36:39;97910.16;;;16.06;61.13
56825;BME280;42705;50.326;18.772;2022-09-25T16:42:24;97911.37;;;15.93;61.61
56825;BME280;42705;50.326;18.772;2022-09-25T16:47:57;97913.24;;;15.88;62.09
56825;BME280;42705;50.326;18.772;2022-09-25T16:53:19;97910.75;;;15.76;62.50
56825;BME280;42705;50.326;18.772;2022-09-25T16:58:41;97918.99;;;15.77;62.76
56825;BME280;42705;50.326;18.772;2022-09-25T17:04:02;97912.81;;;15.81;62.97
56825;BME280;42705;50.326;18.772;2022-09-25T17:09:25;97910.31;;;15.83;63.19
56825;BME280;42705;50.326;18.772;2022-09-25T17:14:49;97908.16;;;15.83;63.37
56825;BME280;42705;50.326;18.772;2022-09-25T17:20:11;97903.78;;;15.79;63.43
56825;BME280;42705;50.326;18.772;2022-09-25T17:25:38;97910.44;;;15.75;63.49
56825;BME280;42705;50.326;18.772;2022-09-25T17:31:04;97915.01;;;15.66;63.78
56825;BME280;42705;50.326;18.772;2022-09-25T17:36:25;97917.13;;;15.56;64.06
56825;BME280;42705;50.326;18.772;2022-09-25T17:41:48;97920.05;;;15.46;64.21
56825;BME280;42705;50.326;18.772;2022-09-25T17:47:10;97917.95;;;15.41;64.47
56825;BME280;42705;50.326;18.772;2022-09-25T17:52:32;97910.95;;;15.33;64.73
56825;BME280;42705;50.326;18.772;2022-09-25T17:57:53;97907.25;;;15.28;65.13
56825;BME280;42705;50.326;18.772;2022-09-25T18:03:15;97909.84;;;15.17;65.35
56825;BME280;42705;50.326;18.772;2022-09-25T18:08:36;97899.02;;;15.12;65.58
56825;BME280;42705;50.326;18.772;2022-09-25T18:13:58;97906.52;;;15.19;65.94
56825;BME280;42705;50.326;18.772;2022-09-25T18:19:21;97899.06;;;15.23;66.07
56825;BME280;42705;50.326;18.772;2022-09-25T18:25:01;97901.19;;;15.23;66.03
56825;BME280;42705;50.326;18.772;2022-09-25T18:30:22;97905.46;;;15.24;65.99
56825;BME280;42705;50.326;18.772;2022-09-25T18:35:44;97909.62;;;15.23;66.03
56825;BME280;42705;50.326;18.772;2022-09-25T18:41:06;97907.57;;;15.14;66.17
56825;BME280;42705;50.326;18.772;2022-09-25T18:46:27;97900.81;;;15.00;66.38
56825;BME280;42705;50.326;18.772;2022-09-25T18:51:48;97905.45;;;14.98;66.44
56825;BME280;42705;50.326;18.772;2022-09-25T18:57:10;97892.80;;;14.94;66.50
56825;BME280;42705;50.326;18.772;2022-09-25T19:02:32;97889.78;;;14.82;66.57
56825;BME280;42705;50.326;18.772;2022-09-25T19:07:56;97896.84;;;14.66;66.70
56825;BME280;42705;50.326;18.772;2022-09-25T19:13:17;97896.18;;;14.49;66.89
56825;BME280;42705;50.326;18.772;2022-09-25T19:18:39;97900.41;;;14.35;67.15
56825;BME280;42705;50.326;18.772;2022-09-25T19:24:00;97911.06;;;14.23;67.51
56825;BME280;42705;50.326;18.772;2022-09-25T19:29:22;97915.09;;;14.10;67.78
56825;BME280;42705;50.326;18.772;2022-09-25T19:34:43;97915.15;;;14.02;68.07
56825;BME280;42705;50.326;18.772;2022-09-25T19:40:06;97915.98;;;13.98;68.34
56825;BME280;42705;50.326;18.772;2022-09-25T19:45:48;97920.16;;;13.93;68.54
56825;BME280;42705;50.326;18.772;2022-09-25T19:51:18;97908.18;;;13.86;68.80
56825;BME280;42705;50.326;18.772;2022-09-25T19:56:41;97908.18;;;13.86;68.86
56825;BME280;42705;50.326;18.772;2022-09-25T20:02:03;97907.05;;;13.84;68.94
56825;BME280;42705;50.326;18.772;2022-09-25T20:07:24;97904.77;;;13.77;69.10
56825;BME280;42705;50.326;18.772;2022-09-25T20:12:47;97908.39;;;13.76;69.10
56825;BME280;42705;50.326;18.772;2022-09-25T20:18:08;97900.69;;;13.74;69.25
56825;BME280;42705;50.326;18.772;2022-09-25T20:23:30;97895.64;;;13.65;69.23
56825;BME280;42705;50.326;18.772;2022-09-25T20:29:00;97898.67;;;13.53;69.28
56825;BME280;42705;50.326;18.772;2022-09-25T20:34:22;97892.59;;;13.49;69.51
56825;BME280;42705;50.326;18.772;2022-09-25T20:39:43;97889.15;;;13.40;69.64
56825;BME280;42705;50.326;18.772;2022-09-25T20:45:07;97888.41;;;13.27;69.83
56825;BME280;42705;50.326;18.772;2022-09-25T20:50:29;97877.56;;;13.22;69.97
56825;BME280;42705;50.326;18.772;2022-09-25T20:55:50;97877.88;;;13.23;70.18
56825;BME280;42705;50.326;18.772;2022-09-25T21:01:19;97876.56;;;13.23;70.22
56825;BME280;42705;50.326;18.772;2022-09-25T21:06:43;97870.20;;;13.17;70.24
56825;BME280;42705;50.326;18.772;2022-09-25T21:12:04;97865.97;;;13.08;70.23
56825;BME280;42705;50.326;18.772;2022-09-25T21:17:26;97870.07;;;13.06;70.44
56825;BME280;42705;50.326;18.772;2022-09-25T21:22:47;97870.59;;;12.97;70.54
56825;BME280;42705;50.326;18.772;2022-09-25T21:28:09;97866.20;;;12.90;70.68
56825;BME280;42705;50.326;18.772;2022-09-25T21:33:30;97856.32;;;12.87;70.75
56825;BME280;42705;50.326;18.772;2022-09-25T21:38:51;97856.34;;;12.83;70.78
56825;BME280;42705;50.326;18.772;2022-09-25T21:44:14;97855.56;;;12.74;70.93
56825;BME280;42705;50.326;18.772;2022-09-25T21:49:36;97851.94;;;12.67;70.96
56825;BME280;42705;50.326;18.772;2022-09-25T21:54:58;97850.64;;;12.63;71.18
56825;BME280;42705;50.326;18.772;2022-09-25T22:00:19;97845.59;;;12.53;71.33
56825;BME280;42705;50.326;18.772;2022-09-25T22:05:40;97851.67;;;12.50;71.48
56825;BME280;42705;50.326;18.772;2022-09-25T22:11:03;97841.17;;;12.45;71.54
56825;BME280;42705;50.326;18.772;2022-09-25T22:16:30;97832.97;;;12.40;71.75
56825;BME280;42705;50.326;18.772;2022-09-25T22:21:54;97815.90;;;12.40;71.86
56825;BME280;42705;50.326;18.772;2022-09-25T22:27:16;97816.55;;;12.42;71.96
56825;BME280;42705;50.326;18.772;2022-09-25T22:32:37;97816.37;;;12.44;71.99
56825;BME280;42705;50.326;18.772;2022-09-25T22:37:58;97818.66;;;12.47;71.94
56825;BME280;42705;50.326;18.772;2022-09-25T22:43:19;97812.75;;;12.45;71.90
56825;BME280;42705;50.326;18.772;2022-09-25T22:48:41;97813.11;;;12.34;71.86
56825;BME280;42705;50.326;18.772;2022-09-25T22:54:02;97817.54;;;12.29;71.98
56825;BME280;42705;50.326;18.772;2022-09-25T22:59:23;97822.80;;;12.25;72.04
56825;BME280;42705;50.326;18.772;2022-09-25T23:04:45;97825.30;;;12.18;72.12
56825;BME280;42705;50.326;18.772;2022-09-25T23:10:08;97827.92;;;12.18;72.26
56825;BME280;42705;50.326;18.772;2022-09-25T23:15:30;97820.19;;;12.21;72.32
56825;BME280;42705;50.326;18.772;2022-09-25T23:20:52;97814.47;;;12.17;72.37
56825;BME280;42705;50.326;18.772;2022-09-25T23:26:14;97809.88;;;12.15;72.48
56825;BME280;42705;50.326;18.772;2022-09-25T23:31:35;97806.08;;;12.18;72.58
56825;BME280;42705;50.326;18.772;2022-09-25T23:36:56;97792.61;;;12.21;72.70
56825;BME280;42705;50.326;18.772;2022-09-25T23:42:17;97781.61;;;12.29;72.57
56825;BME280;42705;50.326;18.772;2022-09-25T23:47:38;97777.50;;;12.35;72.55
56825;BME280;42705;50.326;18.772;2022-09-25T23:52:59;97768.79;;;12.35;72.53
56825;BME280;42705;50.326;18.772;2022-09-25T23:58:20;97770.92;;;12.39;72.49
